createdAt,value
2023-03-18T00:01:32.035Z,71.20
2023-03-18T00:04:02.076Z,52.23
2023-03-18T00:06:30.308Z,67.57
2023-03-18T00:08:58.522Z,64.50
2023-03-18T00:11:25.568Z,63.80
2023-03-18T00:13:53.107Z,54.20
2023-03-18T00:16:21.563Z,39.87
2023-03-18T00:18:50.072Z,30.97
2023-03-18T00:21:17.248Z,32.43
2023-03-18T00:23:44.295Z,21.53
2023-03-18T00:26:12.363Z,25.47
2023-03-18T00:28:41.748Z,24.13
2023-03-18T00:31:11.702Z,17.63
2023-03-18T00:33:41.080Z,22.53
2023-03-18T00:36:10.543Z,18.30
2023-03-18T00:38:37.928Z,21.70
2023-03-18T00:41:11.812Z,24.00
2023-03-18T00:43:52.959Z,18.70
2023-03-18T00:46:30.990Z,20.93
2023-03-18T00:49:00.819Z,27.60
2023-03-18T00:51:31.675Z,25.70
2023-03-18T00:54:02.156Z,27.37
2023-03-18T00:56:31.452Z,17.03
2023-03-18T00:58:59.550Z,28.20
2023-03-18T01:01:29.721Z,32.73
2023-03-18T01:03:59.787Z,32.97
2023-03-18T01:06:31.739Z,24.43
2023-03-18T01:08:59.615Z,30.97
2023-03-18T01:11:26.801Z,30.17
2023-03-18T01:13:54.618Z,29.67
2023-03-18T01:16:22.857Z,34.87
2023-03-18T01:18:50.518Z,35.13
2023-03-18T01:21:18.623Z,36.37
2023-03-18T01:23:51.531Z,43.90
2023-03-18T01:26:18.680Z,55.10
2023-03-18T01:28:47.516Z,66.13
2023-03-18T01:31:15.581Z,58.97
2023-03-18T01:33:45.294Z,53.70
2023-03-18T01:36:12.779Z,60.77
2023-03-18T01:38:41.138Z,38.93
2023-03-18T01:41:12.436Z,57.87
2023-03-18T01:43:43.084Z,52.33
2023-03-18T01:46:32.603Z,50.83
2023-03-18T01:49:03.151Z,61.30
2023-03-18T01:51:31.283Z,63.50
2023-03-18T01:54:02.464Z,35.43
2023-03-18T01:56:29.920Z,48.50
2023-03-18T01:58:57.883Z,51.53
2023-03-18T02:01:32.645Z,38.37
2023-03-18T02:04:06.340Z,47.57
2023-03-18T02:06:33.891Z,60.20
2023-03-18T02:09:02.012Z,62.27
2023-03-18T02:11:37.633Z,54.23
2023-03-18T02:14:07.276Z,48.87
2023-03-18T02:16:46.514Z,42.17
2023-03-18T02:19:47.974Z,55.40
2023-03-18T02:22:34.324Z,61.10
2023-03-18T02:27:59.546Z,54.30
2023-03-18T02:30:36.655Z,54.23
2023-03-18T02:33:07.097Z,47.33
2023-03-18T02:35:35.044Z,41.90
2023-03-18T02:38:03.202Z,54.07
2023-03-18T02:40:34.726Z,47.07
2023-03-18T02:43:31.345Z,29.97
2023-03-18T02:46:32.523Z,32.97
2023-03-18T02:49:04.914Z,31.67
2023-03-18T02:51:32.845Z,22.67
2023-03-18T02:54:13.177Z,18.07
2023-03-18T02:56:41.871Z,25.87
2023-03-18T02:59:11.389Z,29.03
2023-03-18T03:01:40.343Z,25.10
2023-03-18T03:04:07.803Z,25.57
2023-03-18T03:06:36.230Z,28.90
2023-03-18T03:09:05.995Z,28.07
2023-03-18T03:11:35.543Z,27.03
2023-03-18T03:14:11.674Z,26.13
2023-03-18T03:16:39.350Z,27.70
2023-03-18T03:19:06.888Z,31.43
2023-03-18T03:21:36.395Z,29.33
2023-03-18T03:24:05.685Z,27.40
2023-03-18T03:26:33.827Z,25.30
2023-03-18T03:29:00.886Z,26.40
2023-03-18T03:31:28.592Z,27.93
2023-03-18T03:33:55.739Z,36.90
2023-03-18T03:36:22.926Z,23.90
2023-03-18T03:38:50.704Z,25.43
2023-03-18T03:41:18.261Z,38.20
2023-03-18T03:43:45.735Z,32.93
2023-03-18T03:46:12.858Z,29.20
2023-03-18T03:48:40.214Z,21.53
2023-03-18T03:51:11.693Z,28.03
2023-03-18T03:53:38.902Z,26.77
2023-03-18T03:56:07.832Z,20.90
2023-03-18T03:58:35.908Z,22.20
2023-03-18T04:01:05.221Z,21.80
2023-03-18T04:03:33.146Z,19.80
2023-03-18T04:06:00.891Z,19.23
2023-03-18T04:08:30.445Z,16.07
2023-03-18T04:10:59.538Z,21.30
2023-03-18T04:13:26.956Z,23.50
2023-03-18T04:15:55.033Z,20.20
2023-03-18T04:18:22.063Z,18.10
2023-03-18T04:20:49.144Z,20.07
2023-03-18T04:23:28.771Z,19.20
2023-03-18T04:25:56.814Z,26.13
2023-03-18T04:28:24.397Z,27.53
2023-03-18T04:30:51.848Z,23.67
2023-03-18T04:33:19.738Z,22.97
2023-03-18T04:35:47.873Z,24.40
2023-03-18T04:38:17.019Z,24.20
2023-03-18T04:40:45.775Z,27.80
2023-03-18T04:43:13.167Z,25.37
2023-03-18T04:45:40.265Z,22.37
2023-03-18T04:48:07.464Z,29.80
2023-03-18T04:50:40.004Z,25.37
2023-03-18T04:53:10.206Z,24.90
2023-03-18T04:55:38.320Z,29.73
2023-03-18T04:58:08.573Z,30.70
2023-03-18T05:00:40.577Z,46.37
2023-03-18T05:03:19.546Z,40.37
2023-03-18T05:05:47.564Z,37.97
2023-03-18T05:08:16.945Z,65.60
2023-03-18T05:10:45.260Z,68.87
2023-03-18T05:13:13.747Z,73.37
2023-03-18T05:15:41.419Z,65.43
2023-03-18T05:18:08.953Z,50.27
2023-03-18T05:20:36.356Z,41.27
2023-03-18T05:23:05.028Z,36.23
2023-03-18T05:25:51.662Z,41.97
2023-03-18T05:28:21.552Z,41.87
2023-03-18T05:31:04.691Z,34.27
2023-03-18T05:33:34.724Z,31.47
2023-03-18T05:36:02.116Z,27.10
2023-03-18T05:38:35.510Z,30.50
2023-03-18T05:41:03.536Z,30.57
2023-03-18T05:43:36.228Z,27.93
2023-03-18T05:46:04.486Z,30.10
2023-03-18T05:48:49.912Z,29.33
2023-03-18T05:51:17.434Z,27.27
2023-03-18T05:53:45.574Z,27.20
2023-03-18T05:56:21.130Z,28.43
2023-03-18T05:58:52.375Z,31.47
2023-03-18T06:01:31.783Z,30.70
2023-03-18T06:04:00.779Z,24.97
2023-03-18T06:06:28.046Z,26.57
2023-03-18T06:08:56.476Z,24.27
2023-03-18T06:11:24.673Z,31.30
2023-03-18T06:13:52.498Z,25.80
2023-03-18T06:16:20.147Z,29.63
2023-03-18T06:18:47.316Z,27.23
2023-03-18T06:21:16.091Z,26.13
2023-03-18T06:23:44.483Z,37.97
2023-03-18T06:26:11.723Z,48.87
2023-03-18T06:28:46.372Z,44.00
2023-03-18T06:31:15.528Z,45.57
2023-03-18T06:33:42.921Z,51.67
2023-03-18T06:36:12.818Z,40.93
2023-03-18T06:38:46.025Z,37.20
2023-03-18T06:41:14.894Z,40.63
2023-03-18T06:43:54.895Z,40.67
2023-03-18T06:46:24.135Z,48.63
2023-03-18T06:48:51.494Z,41.93
2023-03-18T06:51:24.357Z,37.37
2023-03-18T06:53:52.174Z,34.27
2023-03-18T06:56:19.357Z,38.00
2023-03-18T06:59:11.212Z,45.67
2023-03-18T07:01:39.135Z,42.90
2023-03-18T07:04:07.201Z,46.43
2023-03-18T07:06:36.464Z,43.80
2023-03-18T07:09:04.191Z,52.67
2023-03-18T07:11:31.252Z,52.80
2023-03-18T07:14:02.939Z,59.10
2023-03-18T07:16:35.872Z,52.40
2023-03-18T07:19:04.441Z,50.00
2023-03-18T07:21:32.058Z,47.83
2023-03-18T07:23:59.341Z,48.43
2023-03-18T07:26:26.669Z,45.60
2023-03-18T07:28:53.669Z,47.03
2023-03-18T07:31:20.777Z,44.93
2023-03-18T07:33:48.995Z,41.93
2023-03-18T07:36:16.171Z,46.33
2023-03-18T07:38:43.397Z,49.20
2023-03-18T07:41:10.380Z,45.60
2023-03-18T07:43:37.714Z,36.97
2023-03-18T07:46:05.843Z,35.40
2023-03-18T07:48:34.332Z,37.50
2023-03-18T07:51:02.231Z,39.03
2023-03-18T07:53:29.469Z,35.73
2023-03-18T07:55:56.611Z,42.77
2023-03-18T07:58:24.752Z,41.30
2023-03-18T08:00:53.116Z,38.57
2023-03-18T08:03:20.239Z,35.23
2023-03-18T08:05:47.206Z,37.75
2023-03-18T08:08:14.206Z,42.00
2023-03-18T08:10:41.262Z,39.45
2023-03-18T08:13:08.373Z,33.55
2023-03-18T08:15:35.516Z,31.23
2023-03-18T08:18:02.766Z,28.23
2023-03-18T08:20:29.790Z,28.42
2023-03-18T08:22:57.348Z,24.63
2023-03-18T08:25:24.359Z,25.92
2023-03-18T08:27:52.594Z,26.77
2023-03-18T08:30:20.203Z,30.25
2023-03-18T08:32:47.471Z,21.58
2023-03-18T08:35:14.632Z,26.55
2023-03-18T08:37:41.642Z,28.17
2023-03-18T08:40:10.046Z,25.27
2023-03-18T08:42:37.128Z,22.60
2023-03-18T08:45:05.074Z,20.40
2023-03-18T08:47:32.613Z,24.48
2023-03-18T08:49:59.674Z,21.13
2023-03-18T08:52:26.726Z,22.17
2023-03-18T08:54:53.738Z,17.80
2023-03-18T08:57:21.009Z,19.33
2023-03-18T08:59:48.358Z,21.52
2023-03-18T09:02:18.711Z,21.70
2023-03-18T09:04:46.187Z,21.50
2023-03-18T09:07:13.438Z,18.35
2023-03-18T09:09:44.000Z,18.77
2023-03-18T09:12:15.103Z,20.48
2023-03-18T09:14:43.990Z,20.55
2023-03-18T09:17:11.340Z,22.27
2023-03-18T09:19:38.671Z,19.08
2023-03-18T09:22:05.895Z,20.77
2023-03-18T09:24:33.046Z,23.98
2023-03-18T09:27:00.186Z,22.42
2023-03-18T09:29:27.863Z,17.40
2023-03-18T09:31:55.891Z,17.65
2023-03-18T09:34:23.552Z,22.20
2023-03-18T09:36:53.942Z,24.00
2023-03-18T09:39:22.144Z,16.27
2023-03-18T09:41:51.969Z,18.92
2023-03-18T09:44:24.046Z,16.65
2023-03-18T09:47:00.415Z,16.10
2023-03-18T09:49:37.069Z,14.35
2023-03-18T09:52:13.987Z,17.27
2023-03-18T09:54:45.376Z,15.73
2023-03-18T09:57:32.193Z,15.50
2023-03-18T10:00:24.531Z,20.05
2023-03-18T10:02:51.908Z,19.83
2023-03-18T10:05:27.198Z,16.70
2023-03-18T10:07:57.876Z,21.25
2023-03-18T10:10:35.264Z,16.15
2023-03-18T10:13:17.671Z,23.23
2023-03-18T10:15:49.317Z,15.70
2023-03-18T10:18:29.448Z,18.50
2023-03-18T10:21:14.250Z,15.20
2023-03-18T10:23:59.162Z,15.73
2023-03-18T10:26:56.599Z,28.58
2023-03-18T10:29:27.832Z,23.97
2023-03-18T10:32:00.755Z,19.85
2023-03-18T10:34:40.762Z,16.73
2023-03-18T10:37:40.847Z,24.27
2023-03-18T10:40:34.945Z,24.85
2023-03-18T10:43:03.049Z,14.18
2023-03-18T10:45:34.835Z,28.55
2023-03-18T10:48:11.156Z,20.13
2023-03-18T10:50:46.608Z,14.10
2023-03-18T10:53:20.277Z,30.67
2023-03-18T10:55:54.899Z,18.98
2023-03-18T10:58:23.853Z,19.75
2023-03-18T11:00:51.480Z,21.50
2023-03-18T11:03:23.702Z,16.55
2023-03-18T11:05:52.247Z,60.97
2023-03-18T11:08:37.605Z,15.93
2023-03-18T11:11:28.277Z,24.13
2023-03-18T11:13:57.717Z,21.17
2023-03-18T11:16:30.773Z,23.10
2023-03-18T11:18:58.875Z,25.23
2023-03-18T11:21:29.574Z,17.25
2023-03-18T11:24:21.134Z,17.63
2023-03-18T11:26:54.267Z,47.05
2023-03-18T11:29:27.894Z,16.17
2023-03-18T11:32:00.874Z,21.77
2023-03-18T11:34:33.584Z,22.77
2023-03-18T11:37:08.421Z,58.95
2023-03-18T11:39:38.418Z,13.73
2023-03-18T11:42:32.922Z,23.75
2023-03-18T11:45:03.739Z,34.25
2023-03-18T11:47:35.355Z,27.25
2023-03-18T11:50:04.334Z,26.77
2023-03-18T11:52:50.148Z,23.98
2023-03-18T11:55:29.039Z,32.95
2023-03-18T11:58:21.862Z,36.17
2023-03-18T12:01:27.531Z,31.75
2023-03-18T12:04:31.473Z,25.63
2023-03-18T12:07:09.593Z,23.85
2023-03-18T12:09:47.451Z,27.05
2023-03-18T12:12:37.411Z,22.70
2023-03-18T12:15:04.348Z,22.55
2023-03-18T12:17:45.917Z,29.83
2023-03-18T12:20:34.596Z,17.50
2023-03-18T12:23:24.869Z,21.67
2023-03-18T12:26:02.049Z,14.95
2023-03-18T12:28:41.892Z,19.45
2023-03-18T12:31:27.767Z,11.82
2023-03-18T12:34:01.639Z,21.05
2023-03-18T12:36:46.221Z,16.67
2023-03-18T12:39:30.992Z,17.50
2023-03-18T12:42:02.223Z,19.33
2023-03-18T12:44:58.802Z,15.73
2023-03-18T12:47:46.399Z,13.35
2023-03-18T12:50:25.801Z,15.15
2023-03-18T12:52:57.071Z,10.35
2023-03-18T12:55:29.485Z,13.57
2023-03-18T12:58:23.410Z,15.68
2023-03-18T13:00:53.430Z,12.63
2023-03-18T13:03:40.437Z,12.32
2023-03-18T13:06:22.423Z,13.23
2023-03-18T13:08:55.443Z,12.07
2023-03-18T13:11:59.961Z,12.55
2023-03-18T13:14:41.797Z,11.73
2023-03-18T13:17:29.818Z,10.57
2023-03-18T13:20:02.000Z,13.35
2023-03-18T13:22:44.325Z,10.15
2023-03-18T13:25:45.298Z,14.00
2023-03-18T13:28:30.789Z,9.20
2023-03-18T13:31:15.624Z,13.27
2023-03-18T13:34:00.472Z,8.05
2023-03-18T13:37:04.980Z,9.65
2023-03-18T13:40:01.420Z,10.27
2023-03-18T13:42:32.034Z,8.77
2023-03-18T13:45:22.687Z,11.63
2023-03-18T13:47:59.362Z,9.10
2023-03-18T13:50:38.252Z,8.07
2023-03-18T13:53:06.597Z,10.75
2023-03-18T13:55:40.218Z,9.52
2023-03-18T13:58:35.858Z,10.25
2023-03-18T14:01:18.481Z,8.77
2023-03-18T14:03:45.471Z,6.40
2023-03-18T14:06:40.022Z,6.78
2023-03-18T14:09:31.804Z,8.88
2023-03-18T14:12:17.420Z,8.43
2023-03-18T14:14:55.471Z,11.82
2023-03-18T14:17:38.039Z,7.45
2023-03-18T14:20:37.127Z,7.68
2023-03-18T14:23:29.534Z,7.63
2023-03-18T14:26:04.722Z,7.38
2023-03-18T14:28:49.801Z,8.10
2023-03-18T14:31:35.041Z,6.88
2023-03-18T14:34:03.829Z,8.45
2023-03-18T14:37:00.508Z,5.70
2023-03-18T14:39:46.682Z,7.90
2023-03-18T14:42:44.359Z,7.70
2023-03-18T14:45:14.366Z,5.93
2023-03-18T14:47:48.888Z,8.60
2023-03-18T14:50:44.743Z,9.30
2023-03-18T14:53:11.706Z,11.75
2023-03-18T14:55:40.424Z,10.57
2023-03-18T14:58:18.602Z,9.38
2023-03-18T15:00:48.837Z,8.55
2023-03-18T15:03:20.297Z,5.43
2023-03-18T15:05:48.081Z,5.45
2023-03-18T15:08:22.740Z,6.53
2023-03-18T15:10:51.872Z,7.82
2023-03-18T15:13:22.065Z,6.60
2023-03-18T15:15:50.713Z,8.77
2023-03-18T15:18:20.994Z,9.63
2023-03-18T15:20:54.801Z,5.75
2023-03-18T15:23:35.365Z,7.88
2023-03-18T15:26:09.743Z,6.40
2023-03-18T15:28:37.534Z,8.38
2023-03-18T15:31:05.979Z,11.70
2023-03-18T15:33:37.497Z,4.55
2023-03-18T15:36:07.993Z,6.80
2023-03-18T15:38:35.286Z,4.88
2023-03-18T15:41:12.241Z,7.60
2023-03-18T15:43:45.197Z,6.47
2023-03-18T15:46:31.235Z,10.18
2023-03-18T15:49:01.205Z,4.40
2023-03-18T15:51:40.759Z,9.13
2023-03-18T15:54:18.301Z,7.38
2023-03-18T15:56:50.463Z,6.75
2023-03-18T15:59:28.963Z,7.15
2023-03-18T16:01:57.268Z,8.18
2023-03-18T16:04:26.047Z,5.63
2023-03-18T16:06:53.860Z,7.95
2023-03-18T16:09:25.278Z,9.95
2023-03-18T16:11:55.301Z,6.90
2023-03-18T16:14:26.298Z,8.63
2023-03-18T16:16:53.465Z,8.52
2023-03-18T16:19:25.448Z,4.45
2023-03-18T16:21:53.112Z,6.32
2023-03-18T16:24:20.526Z,6.93
2023-03-18T16:26:47.881Z,6.60
2023-03-18T16:29:38.358Z,5.72
2023-03-18T16:32:06.072Z,5.72
2023-03-18T16:34:33.674Z,8.90
2023-03-18T16:37:01.024Z,5.50
2023-03-18T16:39:35.409Z,11.15
2023-03-18T16:42:04.417Z,12.60
2023-03-18T16:44:33.576Z,9.50
2023-03-18T16:47:01.740Z,6.97
2023-03-18T16:49:34.545Z,17.15
2023-03-18T16:52:04.530Z,14.85
2023-03-18T16:54:33.676Z,14.18
2023-03-18T16:57:03.364Z,7.68
2023-03-18T16:59:33.910Z,7.88
2023-03-18T17:02:02.194Z,10.98
2023-03-18T17:04:32.034Z,11.10
2023-03-18T17:07:02.011Z,9.88
2023-03-18T17:09:29.256Z,10.93
2023-03-18T17:12:05.524Z,9.23
2023-03-18T17:14:40.258Z,19.45
2023-03-18T17:17:19.793Z,14.68
2023-03-18T17:19:46.937Z,13.95
2023-03-18T17:22:23.245Z,12.57
2023-03-18T17:24:50.948Z,12.70
2023-03-18T17:27:22.341Z,21.17
2023-03-18T17:29:49.845Z,19.48
2023-03-18T17:32:19.611Z,24.75
2023-03-18T17:34:48.527Z,12.10
2023-03-18T17:37:15.538Z,12.38
2023-03-18T17:39:42.610Z,11.73
2023-03-18T17:42:26.821Z,8.50
2023-03-18T17:44:53.970Z,11.57
2023-03-18T17:47:21.610Z,7.80
2023-03-18T17:49:48.627Z,7.50
2023-03-18T17:52:22.407Z,10.98
2023-03-18T17:54:49.931Z,8.48
2023-03-18T17:57:18.398Z,8.15
2023-03-18T17:59:46.160Z,8.15
2023-03-18T18:02:18.373Z,10.25
2023-03-18T18:04:46.018Z,15.30
2023-03-18T18:07:21.862Z,13.75
2023-03-18T18:09:49.821Z,13.57
2023-03-18T18:12:22.204Z,12.32
2023-03-18T18:14:49.937Z,25.52
2023-03-18T18:17:18.330Z,23.95
2023-03-18T18:19:45.809Z,24.00
2023-03-18T18:22:23.222Z,37.03
2023-03-18T18:24:51.834Z,37.70
2023-03-18T18:27:19.481Z,30.15
2023-03-18T18:29:46.683Z,22.70
2023-03-18T18:32:15.715Z,23.13
2023-03-18T18:34:42.855Z,20.42
2023-03-18T18:37:10.000Z,19.08
2023-03-18T18:39:37.022Z,20.17
2023-03-18T18:42:04.594Z,14.93
2023-03-18T18:44:32.035Z,14.95
2023-03-18T18:47:00.211Z,21.73
2023-03-18T18:49:27.339Z,14.23
2023-03-18T18:51:56.155Z,18.15
2023-03-18T18:54:24.715Z,15.85
2023-03-18T18:56:52.428Z,24.10
2023-03-18T18:59:22.453Z,39.17
2023-03-18T19:01:51.209Z,51.50
2023-03-18T19:04:18.706Z,47.75
2023-03-18T19:06:46.575Z,43.67
2023-03-18T19:09:25.228Z,29.45
2023-03-18T19:11:56.439Z,34.45
2023-03-18T19:14:26.404Z,43.00
2023-03-18T19:16:57.554Z,42.65
2023-03-18T19:19:34.579Z,33.47
2023-03-18T19:22:03.080Z,33.22
2023-03-18T19:24:32.814Z,19.05
2023-03-18T19:27:05.854Z,15.30
2023-03-18T19:29:33.372Z,16.38
2023-03-18T19:32:01.676Z,14.88
2023-03-18T19:34:30.164Z,17.13
2023-03-18T19:36:57.395Z,15.88
2023-03-18T19:39:25.409Z,16.13
2023-03-18T19:41:52.552Z,12.48
2023-03-18T19:44:25.807Z,17.88
2023-03-18T19:46:55.680Z,13.23
2023-03-18T19:49:36.062Z,17.13
2023-03-18T19:52:16.714Z,11.73
2023-03-18T19:54:44.249Z,17.15
2023-03-18T19:57:20.879Z,15.43
2023-03-18T19:59:49.618Z,21.67
2023-03-18T20:02:23.469Z,19.00
2023-03-18T20:04:56.529Z,16.90
2023-03-18T20:07:26.241Z,14.15
2023-03-18T20:09:54.390Z,15.90
2023-03-18T20:12:23.021Z,13.80
2023-03-18T20:14:50.851Z,14.77
2023-03-18T20:17:23.880Z,16.73
2023-03-18T20:19:51.129Z,14.77
2023-03-18T20:22:47.905Z,16.05
2023-03-18T20:25:25.311Z,14.65
2023-03-18T20:27:56.327Z,16.65
2023-03-18T20:30:37.975Z,24.40
2023-03-18T20:33:05.992Z,18.88
2023-03-18T20:35:36.862Z,24.50
2023-03-18T20:38:26.782Z,18.05
2023-03-18T20:40:53.802Z,18.85
2023-03-18T20:43:22.862Z,22.48
2023-03-18T20:45:53.209Z,20.30
2023-03-18T20:48:20.877Z,23.88
2023-03-18T20:50:48.170Z,19.02
2023-03-18T20:53:24.191Z,22.38
2023-03-18T20:55:51.942Z,23.77
2023-03-18T20:58:23.800Z,30.67
2023-03-18T21:00:52.513Z,28.70
2023-03-18T21:03:32.233Z,37.22
2023-03-18T21:06:01.698Z,39.28
2023-03-18T21:08:29.672Z,41.55
2023-03-18T21:11:00.975Z,45.85
2023-03-18T21:13:39.242Z,48.70
2023-03-18T21:16:14.733Z,40.35
2023-03-18T21:18:43.819Z,42.80
2023-03-18T21:21:26.742Z,35.80
2023-03-18T21:23:54.211Z,37.38
2023-03-18T21:26:22.751Z,33.38
2023-03-18T21:28:51.062Z,33.28
2023-03-18T21:31:33.294Z,30.02
2023-03-18T21:34:01.343Z,27.63
2023-03-18T21:36:28.491Z,28.10
2023-03-18T21:38:55.714Z,30.42
2023-03-18T21:41:27.845Z,36.15
2023-03-18T21:43:55.536Z,38.10
2023-03-18T21:46:24.913Z,36.22
2023-03-18T21:48:52.424Z,31.67
2023-03-18T21:51:35.230Z,37.40
2023-03-18T21:54:04.947Z,24.00
2023-03-18T21:56:32.017Z,30.25
2023-03-18T21:58:59.043Z,35.95
2023-03-18T22:01:32.310Z,40.67
2023-03-18T22:03:59.536Z,19.55
2023-03-18T22:06:26.629Z,27.63
2023-03-18T22:08:53.681Z,27.92
2023-03-18T22:11:22.948Z,33.15
2023-03-18T22:13:50.407Z,32.50
2023-03-18T22:16:19.039Z,30.10
2023-03-18T22:18:47.576Z,30.40
2023-03-18T22:21:23.442Z,28.83
2023-03-18T22:23:50.840Z,59.97
2023-03-18T22:26:19.367Z,62.20
2023-03-18T22:28:46.691Z,73.85
2023-03-18T22:31:21.571Z,65.97
2023-03-18T22:33:48.920Z,72.33
2023-03-18T22:36:17.849Z,68.33
2023-03-18T22:38:46.124Z,54.53
2023-03-18T22:41:21.339Z,68.93
2023-03-18T22:43:49.458Z,62.63
2023-03-18T22:46:16.903Z,40.50
2023-03-18T22:48:43.960Z,39.25
2023-03-18T22:51:23.743Z,36.13
2023-03-18T22:53:52.829Z,41.87
2023-03-18T22:56:21.489Z,31.10
2023-03-18T22:58:48.697Z,35.43
2023-03-18T23:01:23.194Z,40.57
2023-03-18T23:03:50.676Z,49.07
2023-03-18T23:06:21.116Z,48.73
2023-03-18T23:08:48.319Z,48.57
2023-03-18T23:11:16.783Z,51.90
2023-03-18T23:13:47.643Z,64.47
2023-03-18T23:16:17.363Z,59.97
2023-03-18T23:18:44.761Z,57.57
2023-03-18T23:21:25.089Z,64.33
2023-03-18T23:23:52.987Z,28.17
2023-03-18T23:26:20.680Z,35.13
2023-03-18T23:28:48.997Z,45.47
2023-03-18T23:31:16.806Z,27.70
2023-03-18T23:33:44.354Z,29.93
2023-03-18T23:36:12.406Z,25.50
2023-03-18T23:38:39.558Z,28.13
2023-03-18T23:41:07.441Z,27.37
2023-03-18T23:43:34.920Z,54.67
2023-03-18T23:46:02.438Z,30.70
2023-03-18T23:48:29.686Z,36.13
2023-03-18T23:50:56.959Z,33.70
2023-03-18T23:53:24.052Z,33.70
2023-03-18T23:55:51.156Z,34.90
2023-03-18T23:58:18.355Z,39.43
